sensor_id;sensor_type;location;lat;lon;timestamp;pressure;altitude;pressure_sealevel;temperature;humidity
13836;BME280;6988;52.614;13.500;2022-10-22T00:01:49;54255.91;;;-143.77;98.08
13836;BME280;6988;52.614;13.500;2022-10-22T00:06:41;54290.78;;;-143.77;98.11
13836;BME280;6988;52.614;13.500;2022-10-22T00:11:34;54268.22;;;-143.77;98.19
13836;BME280;6988;52.614;13.500;2022-10-22T00:16:26;54284.63;;;-143.77;98.20
13836;BME280;6988;52.614;13.500;2022-10-22T00:21:19;54294.88;;;-143.77;98.31
13836;BME280;6988;52.614;13.500;2022-10-22T00:26:13;54298.97;;;-143.77;98.20
13836;BME280;6988;52.614;13.500;2022-10-22T00:31:05;54278.47;;;-143.77;98.16
13836;BME280;6988;52.614;13.500;2022-10-22T00:35:57;54280.53;;;-143.77;98.01
13836;BME280;6988;52.614;13.500;2022-10-22T00:40:51;54294.88;;;-143.77;97.81
13836;BME280;6988;52.614;13.500;2022-10-22T00:45:43;54276.41;;;-143.77;97.48
13836;BME280;6988;52.614;13.500;2022-10-22T00:50:40;54290.78;;;-143.77;97.10
13836;BME280;6988;52.614;13.500;2022-10-22T00:55:33;54286.69;;;-143.77;95.89
13836;BME280;6988;52.614;13.500;2022-10-22T01:00:27;54290.78;;;-143.77;94.68
13836;BME280;6988;52.614;13.500;2022-10-22T01:05:19;54296.94;;;-143.77;92.51
13836;BME280;6988;52.614;13.500;2022-10-22T01:10:26;54282.56;;;-143.77;92.36
13836;BME280;6988;52.614;13.500;2022-10-22T01:15:34;54319.50;;;-143.77;92.94
13836;BME280;6988;52.614;13.500;2022-10-22T01:20:55;54311.28;;;-143.77;93.60
13836;BME280;6988;52.614;13.500;2022-10-22T01:25:59;54303.09;;;-143.77;94.29
13836;BME280;6988;52.614;13.500;2022-10-22T01:30:58;54319.50;;;-143.77;94.23
13836;BME280;6988;52.614;13.500;2022-10-22T01:35:52;54303.09;;;-143.77;94.51
13836;BME280;6988;52.614;13.500;2022-10-22T01:40:46;54319.50;;;-143.77;94.68
13836;BME280;6988;52.614;13.500;2022-10-22T01:45:42;54309.25;;;-143.77;94.87
13836;BME280;6988;52.614;13.500;2022-10-22T01:50:59;54340.03;;;-143.77;94.90
13836;BME280;6988;52.614;13.500;2022-10-22T01:56:16;54323.59;;;-143.77;94.64
13836;BME280;6988;52.614;13.500;2022-10-22T02:01:22;54292.84;;;-143.77;94.75
13836;BME280;6988;52.614;13.500;2022-10-22T02:06:21;54323.59;;;-143.77;94.25
13836;BME280;6988;52.614;13.500;2022-10-22T02:11:14;54311.28;;;-143.77;93.95
13836;BME280;6988;52.614;13.500;2022-10-22T02:16:10;54342.06;;;-143.77;93.41
13836;BME280;6988;52.614;13.500;2022-10-22T02:21:06;54296.94;;;-143.77;92.49
13836;BME280;6988;52.614;13.500;2022-10-22T02:26:06;54315.41;;;-143.77;92.49
13836;BME280;6988;52.614;13.500;2022-10-22T02:31:06;54356.44;;;-143.77;92.90
13836;BME280;6988;52.614;13.500;2022-10-22T02:36:01;54307.19;;;-143.77;93.08
13836;BME280;6988;52.614;13.500;2022-10-22T02:40:54;54323.59;;;-143.77;93.53
13836;BME280;6988;52.614;13.500;2022-10-22T02:45:47;54344.13;;;-143.77;93.76
13836;BME280;6988;52.614;13.500;2022-10-22T02:50:39;54315.41;;;-143.77;93.75
13836;BME280;6988;52.614;13.500;2022-10-22T02:55:35;54313.34;;;-143.77;93.75
13836;BME280;6988;52.614;13.500;2022-10-22T03:00:27;54321.56;;;-143.77;93.86
13836;BME280;6988;52.614;13.500;2022-10-22T03:05:21;54311.28;;;-143.77;93.90
13836;BME280;6988;52.614;13.500;2022-10-22T03:10:13;54327.72;;;-143.77;93.84
13836;BME280;6988;52.614;13.500;2022-10-22T03:15:05;54360.53;;;-143.77;93.77
13836;BME280;6988;52.614;13.500;2022-10-22T03:19:57;54366.69;;;-143.77;93.77
13836;BME280;6988;52.614;13.500;2022-10-22T03:24:54;54327.72;;;-143.77;93.42
13836;BME280;6988;52.614;13.500;2022-10-22T03:29:50;54346.19;;;-143.77;93.01
13836;BME280;6988;52.614;13.500;2022-10-22T03:34:43;54360.53;;;-143.77;93.03
13836;BME280;6988;52.614;13.500;2022-10-22T03:39:36;54321.56;;;-143.77;92.54
13836;BME280;6988;52.614;13.500;2022-10-22T03:44:29;54311.28;;;-143.77;92.17
13836;BME280;6988;52.614;13.500;2022-10-22T03:49:22;54352.34;;;-143.77;92.15
13836;BME280;6988;52.614;13.500;2022-10-22T03:54:15;54333.88;;;-143.77;91.75
13836;BME280;6988;52.614;13.500;2022-10-22T03:59:07;54319.50;;;-143.77;91.59
13836;BME280;6988;52.614;13.500;2022-10-22T04:04:01;54352.34;;;-143.77;91.73
13836;BME280;6988;52.614;13.500;2022-10-22T04:08:52;54340.03;;;-143.77;91.86
13836;BME280;6988;52.614;13.500;2022-10-22T04:13:44;54370.81;;;-143.77;92.02
13836;BME280;6988;52.614;13.500;2022-10-22T04:18:37;54352.34;;;-143.77;92.19
13836;BME280;6988;52.614;13.500;2022-10-22T04:23:31;54335.91;;;-143.77;92.06
13836;BME280;6988;52.614;13.500;2022-10-22T04:28:23;54340.03;;;-143.77;91.93
13836;BME280;6988;52.614;13.500;2022-10-22T04:33:14;54342.06;;;-143.77;91.91
13836;BME280;6988;52.614;13.500;2022-10-22T04:38:06;54346.19;;;-143.77;91.81
13836;BME280;6988;52.614;13.500;2022-10-22T04:42:59;54344.13;;;-143.77;91.71
13836;BME280;6988;52.614;13.500;2022-10-22T04:47:51;54381.06;;;-143.77;91.56
13836;BME280;6988;52.614;13.500;2022-10-22T04:52:43;54327.72;;;-143.77;91.46
13836;BME280;6988;52.614;13.500;2022-10-22T04:57:35;54337.97;;;-143.77;91.28
13836;BME280;6988;52.614;13.500;2022-10-22T05:02:28;54372.84;;;-143.77;91.37
13836;BME280;6988;52.614;13.500;2022-10-22T05:07:20;54354.38;;;-143.77;91.32
13836;BME280;6988;52.614;13.500;2022-10-22T05:12:13;54337.97;;;-143.77;91.32
13836;BME280;6988;52.614;13.500;2022-10-22T05:17:05;54387.22;;;-143.77;92.02
13836;BME280;6988;52.614;13.500;2022-10-22T05:22:00;54364.66;;;-143.77;92.55
13836;BME280;6988;52.614;13.500;2022-10-22T05:26:55;54344.13;;;-143.77;92.97
13836;BME280;6988;52.614;13.500;2022-10-22T05:31:48;54381.06;;;-143.77;93.49
13836;BME280;6988;52.614;13.500;2022-10-22T05:36:40;54366.69;;;-143.77;93.75
13836;BME280;6988;52.614;13.500;2022-10-22T05:41:37;54379.00;;;-143.77;93.83
13836;BME280;6988;52.614;13.500;2022-10-22T05:46:34;54348.22;;;-143.77;93.74
13836;BME280;6988;52.614;13.500;2022-10-22T05:51:29;54360.53;;;-143.77;93.34
13836;BME280;6988;52.614;13.500;2022-10-22T05:56:23;54422.09;;;-143.77;92.82
13836;BME280;6988;52.614;13.500;2022-10-22T06:01:20;54352.34;;;-143.77;92.53
13836;BME280;6988;52.614;13.500;2022-10-22T06:06:19;54401.56;;;-143.77;92.39
13836;BME280;6988;52.614;13.500;2022-10-22T06:11:11;54376.97;;;-143.77;92.06
13836;BME280;6988;52.614;13.500;2022-10-22T06:16:04;54337.97;;;-143.77;91.63
13836;BME280;6988;52.614;13.500;2022-10-22T06:21:04;54362.59;;;-143.77;91.74
13836;BME280;6988;52.614;13.500;2022-10-22T06:25:56;54352.34;;;-143.77;91.90
13836;BME280;6988;52.614;13.500;2022-10-22T06:30:48;54346.19;;;-143.77;92.34
13836;BME280;6988;52.614;13.500;2022-10-22T06:35:40;54360.53;;;-143.77;92.56
13836;BME280;6988;52.614;13.500;2022-10-22T06:40:34;54352.34;;;-143.77;92.95
13836;BME280;6988;52.614;13.500;2022-10-22T06:45:26;54368.75;;;-143.77;92.91
13836;BME280;6988;52.614;13.500;2022-10-22T06:50:18;54389.28;;;-143.77;93.14
13836;BME280;6988;52.614;13.500;2022-10-22T06:55:10;54354.38;;;-143.77;93.35
13836;BME280;6988;52.614;13.500;2022-10-22T07:00:05;54360.53;;;-143.77;93.47
13836;BME280;6988;52.614;13.500;2022-10-22T07:04:57;54325.66;;;-143.77;93.18
13836;BME280;6988;52.614;13.500;2022-10-22T07:09:49;54364.66;;;-143.77;92.95
13836;BME280;6988;52.614;13.500;2022-10-22T07:14:40;54331.81;;;-143.77;92.42
13836;BME280;6988;52.614;13.500;2022-10-22T07:19:34;54364.66;;;-143.77;92.37
13836;BME280;6988;52.614;13.500;2022-10-22T07:24:26;54321.56;;;-143.77;92.53
13836;BME280;6988;52.614;13.500;2022-10-22T07:29:18;54319.50;;;-143.77;92.86
13836;BME280;6988;52.614;13.500;2022-10-22T07:34:10;54323.59;;;-143.77;93.25
13836;BME280;6988;52.614;13.500;2022-10-22T07:39:03;54303.09;;;-143.77;94.05
13836;BME280;6988;52.614;13.500;2022-10-22T07:43:56;54315.41;;;-143.77;93.94
13836;BME280;6988;52.614;13.500;2022-10-22T07:48:48;54315.41;;;-143.77;94.25
13836;BME280;6988;52.614;13.500;2022-10-22T07:53:40;54305.13;;;-143.77;94.79
13836;BME280;6988;52.614;13.500;2022-10-22T07:58:34;54294.88;;;-143.77;94.76
13836;BME280;6988;52.614;13.500;2022-10-22T08:03:27;54262.06;;;-143.77;94.64
13836;BME280;6988;52.614;13.500;2022-10-22T08:08:19;54307.19;;;-143.77;94.57
13836;BME280;6988;52.614;13.500;2022-10-22T08:13:12;54282.56;;;-143.77;94.75
13836;BME280;6988;52.614;13.500;2022-10-22T08:18:05;54290.78;;;-143.77;94.93
13836;BME280;6988;52.614;13.500;2022-10-22T08:22:57;54278.47;;;-143.77;94.90
13836;BME280;6988;52.614;13.500;2022-10-22T08:27:49;54260.00;;;-143.77;94.96
13836;BME280;6988;52.614;13.500;2022-10-22T08:32:42;54249.75;;;-143.77;95.07
13836;BME280;6988;52.614;13.500;2022-10-22T08:37:35;54278.47;;;-143.77;95.12
13836;BME280;6988;52.614;13.500;2022-10-22T08:43:04;54262.06;;;-143.77;94.97
13836;BME280;6988;52.614;13.500;2022-10-22T08:48:20;54257.94;;;-143.77;94.81
13836;BME280;6988;52.614;13.500;2022-10-22T08:53:19;54268.22;;;-143.77;94.68
13836;BME280;6988;52.614;13.500;2022-10-22T08:58:21;54237.44;;;-143.77;94.21
13836;BME280;6988;52.614;13.500;2022-10-22T09:03:29;54253.84;;;-143.77;93.45
13836;BME280;6988;52.614;13.500;2022-10-22T09:08:25;54264.09;;;-143.77;93.53
13836;BME280;6988;52.614;13.500;2022-10-22T09:13:20;54245.63;;;-143.77;93.37
13836;BME280;6988;52.614;13.500;2022-10-22T09:18:31;54237.44;;;-143.77;92.87
13836;BME280;6988;52.614;13.500;2022-10-22T09:23:35;54253.84;;;-143.77;92.47
13836;BME280;6988;52.614;13.500;2022-10-22T09:28:28;54266.16;;;-143.77;92.51
13836;BME280;6988;52.614;13.500;2022-10-22T09:33:25;54221.03;;;-143.77;91.94
13836;BME280;6988;52.614;13.500;2022-10-22T09:38:22;54237.44;;;-143.77;91.65
13836;BME280;6988;52.614;13.500;2022-10-22T09:43:17;54216.91;;;-143.77;91.21
13836;BME280;6988;52.614;13.500;2022-10-22T09:48:19;54243.59;;;-143.77;91.16
13836;BME280;6988;52.614;13.500;2022-10-22T09:53:21;54212.81;;;-143.77;91.15
13836;BME280;6988;52.614;13.500;2022-10-22T09:58:13;54143.06;;;-143.77;90.97
13836;BME280;6988;52.614;13.500;2022-10-22T10:03:16;54159.47;;;-143.77;89.72
13836;BME280;6988;52.614;13.500;2022-10-22T10:08:13;54155.38;;;-143.77;87.82
13836;BME280;6988;52.614;13.500;2022-10-22T10:13:35;54167.66;;;-143.77;87.12
13836;BME280;6988;52.614;13.500;2022-10-22T10:18:46;54184.09;;;-143.77;86.40
13836;BME280;6988;52.614;13.500;2022-10-22T10:23:52;54165.63;;;-143.77;86.68
13836;BME280;6988;52.614;13.500;2022-10-22T10:29:15;54179.97;;;-143.77;87.06
13836;BME280;6988;52.614;13.500;2022-10-22T10:34:24;54179.97;;;-143.77;86.73
13836;BME280;6988;52.614;13.500;2022-10-22T10:39:28;54169.72;;;-143.77;86.91
13836;BME280;6988;52.614;13.500;2022-10-22T10:44:47;54159.47;;;-143.77;86.55
13836;BME280;6988;52.614;13.500;2022-10-22T10:49:46;54157.41;;;-143.77;85.12
13836;BME280;6988;52.614;13.500;2022-10-22T10:54:46;54138.94;;;-143.77;84.47
13836;BME280;6988;52.614;13.500;2022-10-22T10:59:57;54163.56;;;-143.77;84.42
13836;BME280;6988;52.614;13.500;2022-10-22T11:05:37;54155.38;;;-143.77;84.30
13836;BME280;6988;52.614;13.500;2022-10-22T11:10:36;54114.31;;;-143.77;83.61
13836;BME280;6988;52.614;13.500;2022-10-22T11:15:32;54118.44;;;-143.77;83.74
13836;BME280;6988;52.614;13.500;2022-10-22T11:20:40;54134.84;;;-143.77;83.51
13836;BME280;6988;52.614;13.500;2022-10-22T11:25:42;54091.75;;;-143.77;81.99
13836;BME280;6988;52.614;13.500;2022-10-22T11:30:37;54099.97;;;-143.77;80.29
13836;BME280;6988;52.614;13.500;2022-10-22T11:35:34;54110.22;;;-143.77;80.11
13836;BME280;6988;52.614;13.500;2022-10-22T11:40:35;54112.28;;;-143.77;80.87
13836;BME280;6988;52.614;13.500;2022-10-22T11:45:32;54028.16;;;-143.77;80.74
13836;BME280;6988;52.614;13.500;2022-10-22T11:50:27;54073.28;;;-143.77;78.61
13836;BME280;6988;52.614;13.500;2022-10-22T11:55:45;54067.13;;;-143.77;78.56
13836;BME280;6988;52.614;13.500;2022-10-22T12:00:45;54054.81;;;-143.77;77.51
13836;BME280;6988;52.614;13.500;2022-10-22T12:05:38;54007.63;;;-143.77;76.18
13836;BME280;6988;52.614;13.500;2022-10-22T12:10:48;54007.63;;;-143.77;74.97
13836;BME280;6988;52.614;13.500;2022-10-22T12:15:50;53987.13;;;-143.77;73.92
13836;BME280;6988;52.614;13.500;2022-10-22T12:20:48;53950.19;;;-143.77;72.86
13836;BME280;6988;52.614;13.500;2022-10-22T12:25:40;54003.53;;;-143.77;72.55
13836;BME280;6988;52.614;13.500;2022-10-22T12:30:33;53972.75;;;-143.77;71.13
13836;BME280;6988;52.614;13.500;2022-10-22T12:35:29;53985.06;;;-143.77;71.20
13836;BME280;6988;52.614;13.500;2022-10-22T12:40:24;53974.81;;;-143.77;69.76
13836;BME280;6988;52.614;13.500;2022-10-22T12:45:17;53958.41;;;-143.77;69.79
13836;BME280;6988;52.614;13.500;2022-10-22T12:50:17;53970.72;;;-143.77;70.55
13836;BME280;6988;52.614;13.500;2022-10-22T12:55:16;53944.03;;;-143.77;71.43
13836;BME280;6988;52.614;13.500;2022-10-22T13:00:22;53933.78;;;-143.77;67.79
13836;BME280;6988;52.614;13.500;2022-10-22T13:05:22;53921.47;;;-143.77;67.51
13836;BME280;6988;52.614;13.500;2022-10-22T13:10:23;53917.38;;;-143.77;68.19
13836;BME280;6988;52.614;13.500;2022-10-22T13:15:37;53917.38;;;-143.77;66.41
13836;BME280;6988;52.614;13.500;2022-10-22T13:20:29;53911.22;;;-143.77;65.91
13836;BME280;6988;52.614;13.500;2022-10-22T13:25:27;53913.25;;;-143.77;66.50
13836;BME280;6988;52.614;13.500;2022-10-22T13:30:23;53894.78;;;-143.77;64.94
13836;BME280;6988;52.614;13.500;2022-10-22T13:35:20;53927.63;;;-143.77;65.03
13836;BME280;6988;52.614;13.500;2022-10-22T13:40:14;53882.50;;;-143.77;65.90
13836;BME280;6988;52.614;13.500;2022-10-22T13:45:08;53921.47;;;-143.77;65.29
13836;BME280;6988;52.614;13.500;2022-10-22T13:50:03;53909.16;;;-143.77;65.81
13836;BME280;6988;52.614;13.500;2022-10-22T13:54:55;53925.56;;;-143.77;64.27
13836;BME280;6988;52.614;13.500;2022-10-22T13:59:47;53894.78;;;-143.77;63.56
13836;BME280;6988;52.614;13.500;2022-10-22T14:04:41;53894.78;;;-143.77;62.90
13836;BME280;6988;52.614;13.500;2022-10-22T14:09:34;53884.53;;;-143.77;62.30
13836;BME280;6988;52.614;13.500;2022-10-22T14:14:26;53923.53;;;-143.77;62.95
13836;BME280;6988;52.614;13.500;2022-10-22T14:19:17;53915.31;;;-143.77;63.47
13836;BME280;6988;52.614;13.500;2022-10-22T14:24:11;53919.41;;;-143.77;63.80
13836;BME280;6988;52.614;13.500;2022-10-22T14:29:02;53974.81;;;-143.77;64.43
13836;BME280;6988;52.614;13.500;2022-10-22T14:33:55;53946.09;;;-143.77;64.68
13836;BME280;6988;52.614;13.500;2022-10-22T14:38:48;53991.22;;;-143.77;65.64
13836;BME280;6988;52.614;13.500;2022-10-22T14:43:41;53989.16;;;-143.77;66.45
13836;BME280;6988;52.614;13.500;2022-10-22T14:48:33;53999.44;;;-143.77;66.39
13836;BME280;6988;52.614;13.500;2022-10-22T14:53:25;54011.75;;;-143.77;66.76
13836;BME280;6988;52.614;13.500;2022-10-22T14:58:16;54015.84;;;-143.77;67.19
13836;BME280;6988;52.614;13.500;2022-10-22T15:03:10;54042.50;;;-143.77;67.69
13836;BME280;6988;52.614;13.500;2022-10-22T15:08:02;53995.31;;;-143.77;68.03
13836;BME280;6988;52.614;13.500;2022-10-22T15:12:54;54007.63;;;-143.77;68.60
13836;BME280;6988;52.614;13.500;2022-10-22T15:17:46;54036.38;;;-143.77;69.18
13836;BME280;6988;52.614;13.500;2022-10-22T15:22:39;54065.09;;;-143.77;69.70
13836;BME280;6988;52.614;13.500;2022-10-22T15:27:31;54069.19;;;-143.77;70.12
13836;BME280;6988;52.614;13.500;2022-10-22T15:32:23;54050.72;;;-143.77;70.65
13836;BME280;6988;52.614;13.500;2022-10-22T15:37:16;54106.13;;;-143.77;71.07
13836;BME280;6988;52.614;13.500;2022-10-22T15:42:09;54083.56;;;-143.77;71.29
13836;BME280;6988;52.614;13.500;2022-10-22T15:47:03;54093.81;;;-143.77;72.12
13836;BME280;6988;52.614;13.500;2022-10-22T15:51:57;54122.53;;;-143.77;72.42
13836;BME280;6988;52.614;13.500;2022-10-22T15:56:49;54122.53;;;-143.77;72.79
13836;BME280;6988;52.614;13.500;2022-10-22T16:01:43;54122.53;;;-143.77;73.34
13836;BME280;6988;52.614;13.500;2022-10-22T16:06:38;54097.91;;;-143.77;73.43
13836;BME280;6988;52.614;13.500;2022-10-22T16:11:31;54126.63;;;-143.77;74.11
13836;BME280;6988;52.614;13.500;2022-10-22T16:16:25;54143.06;;;-143.77;74.23
13836;BME280;6988;52.614;13.500;2022-10-22T16:21:20;54182.03;;;-143.77;74.51
13836;BME280;6988;52.614;13.500;2022-10-22T16:26:13;54182.03;;;-143.77;74.71
13836;BME280;6988;52.614;13.500;2022-10-22T16:31:09;54184.09;;;-143.77;75.14
13836;BME280;6988;52.614;13.500;2022-10-22T16:36:01;54173.81;;;-143.77;75.79
13836;BME280;6988;52.614;13.500;2022-10-22T16:41:06;54171.78;;;-143.77;75.99
13836;BME280;6988;52.614;13.500;2022-10-22T16:45:58;54200.50;;;-143.77;76.10
13836;BME280;6988;52.614;13.500;2022-10-22T16:50:50;54175.88;;;-143.77;76.30
13836;BME280;6988;52.614;13.500;2022-10-22T16:55:42;54206.66;;;-143.77;76.67
13836;BME280;6988;52.614;13.500;2022-10-22T17:00:35;54307.19;;;-143.77;76.77
13836;BME280;6988;52.614;13.500;2022-10-22T17:05:27;54241.53;;;-143.77;77.07
13836;BME280;6988;52.614;13.500;2022-10-22T17:10:20;54221.03;;;-143.77;77.79
13836;BME280;6988;52.614;13.500;2022-10-22T17:15:12;54249.75;;;-143.77;78.15
13836;BME280;6988;52.614;13.500;2022-10-22T17:20:07;54239.47;;;-143.77;78.60
13836;BME280;6988;52.614;13.500;2022-10-22T17:25:12;54216.91;;;-143.77;79.09
13836;BME280;6988;52.614;13.500;2022-10-22T17:30:06;54262.06;;;-143.77;79.49
13836;BME280;6988;52.614;13.500;2022-10-22T17:34:58;54233.31;;;-143.77;79.99
13836;BME280;6988;52.614;13.500;2022-10-22T17:39:52;54212.81;;;-143.77;80.26
13836;BME280;6988;52.614;13.500;2022-10-22T17:44:44;54233.31;;;-143.77;80.61
13836;BME280;6988;52.614;13.500;2022-10-22T17:49:37;54229.22;;;-143.77;80.96
13836;BME280;6988;52.614;13.500;2022-10-22T17:54:29;54245.63;;;-143.77;81.15
13836;BME280;6988;52.614;13.500;2022-10-22T17:59:22;54255.91;;;-143.77;80.98
13836;BME280;6988;52.614;13.500;2022-10-22T18:04:17;54233.31;;;-143.77;80.98
13836;BME280;6988;52.614;13.500;2022-10-22T18:09:13;54245.63;;;-143.77;81.16
13836;BME280;6988;52.614;13.500;2022-10-22T18:14:05;54233.31;;;-143.77;81.05
13836;BME280;6988;52.614;13.500;2022-10-22T18:18:59;54257.94;;;-143.77;81.70
13836;BME280;6988;52.614;13.500;2022-10-22T18:23:52;54278.47;;;-143.77;81.76
13836;BME280;6988;52.614;13.500;2022-10-22T18:28:44;54262.06;;;-143.77;82.17
13836;BME280;6988;52.614;13.500;2022-10-22T18:33:36;54253.84;;;-143.77;82.06
13836;BME280;6988;52.614;13.500;2022-10-22T18:38:29;54268.22;;;-143.77;81.90
13836;BME280;6988;52.614;13.500;2022-10-22T18:43:21;54221.03;;;-143.77;82.08
13836;BME280;6988;52.614;13.500;2022-10-22T18:48:16;54262.06;;;-143.77;82.01
13836;BME280;6988;52.614;13.500;2022-10-22T18:53:09;54241.53;;;-143.77;82.18
13836;BME280;6988;52.614;13.500;2022-10-22T18:58:02;54274.38;;;-143.77;82.01
13836;BME280;6988;52.614;13.500;2022-10-22T19:02:54;54233.31;;;-143.77;81.84
13836;BME280;6988;52.614;13.500;2022-10-22T19:07:48;54264.09;;;-143.77;81.90
13836;BME280;6988;52.614;13.500;2022-10-22T19:12:41;54225.13;;;-143.77;81.99
13836;BME280;6988;52.614;13.500;2022-10-22T19:17:35;54241.53;;;-143.77;81.89
13836;BME280;6988;52.614;13.500;2022-10-22T19:22:27;54245.63;;;-143.77;82.18
13836;BME280;6988;52.614;13.500;2022-10-22T19:27:19;54231.28;;;-143.77;81.97
13836;BME280;6988;52.614;13.500;2022-10-22T19:32:14;54309.25;;;-143.77;81.81
13836;BME280;6988;52.614;13.500;2022-10-22T19:37:07;54262.06;;;-143.77;81.94
13836;BME280;6988;52.614;13.500;2022-10-22T19:42:02;54249.75;;;-143.77;82.04
13836;BME280;6988;52.614;13.500;2022-10-22T19:46:54;54344.13;;;-143.77;81.90
13836;BME280;6988;52.614;13.500;2022-10-22T19:51:46;54233.31;;;-143.77;82.00
13836;BME280;6988;52.614;13.500;2022-10-22T19:56:39;54284.63;;;-143.77;81.77
13836;BME280;6988;52.614;13.500;2022-10-22T20:01:31;54282.56;;;-143.77;82.10
13836;BME280;6988;52.614;13.500;2022-10-22T20:06:23;54272.31;;;-143.77;82.05
13836;BME280;6988;52.614;13.500;2022-10-22T20:11:18;54268.22;;;-143.77;82.20
13836;BME280;6988;52.614;13.500;2022-10-22T20:16:15;54274.38;;;-143.77;81.62
13836;BME280;6988;52.614;13.500;2022-10-22T20:21:12;54278.47;;;-143.77;80.98
13836;BME280;6988;52.614;13.500;2022-10-22T20:26:05;54268.22;;;-143.77;80.95
13836;BME280;6988;52.614;13.500;2022-10-22T20:30:56;54270.25;;;-143.77;80.89
13836;BME280;6988;52.614;13.500;2022-10-22T20:35:58;54262.06;;;-143.77;80.65
13836;BME280;6988;52.614;13.500;2022-10-22T20:40:59;54255.91;;;-143.77;80.60
13836;BME280;6988;52.614;13.500;2022-10-22T20:45:51;54253.84;;;-143.77;80.64
13836;BME280;6988;52.614;13.500;2022-10-22T20:50:43;54235.38;;;-143.77;80.54
13836;BME280;6988;52.614;13.500;2022-10-22T20:55:36;54282.56;;;-143.77;80.89
13836;BME280;6988;52.614;13.500;2022-10-22T21:00:28;54253.84;;;-143.77;81.04
13836;BME280;6988;52.614;13.500;2022-10-22T21:05:25;54251.78;;;-143.77;81.50
13836;BME280;6988;52.614;13.500;2022-10-22T21:10:17;54268.22;;;-143.77;81.56
13836;BME280;6988;52.614;13.500;2022-10-22T21:15:11;54253.84;;;-143.77;82.03
13836;BME280;6988;52.614;13.500;2022-10-22T21:20:04;54245.63;;;-143.77;81.93
13836;BME280;6988;52.614;13.500;2022-10-22T21:24:56;54270.25;;;-143.77;82.03
13836;BME280;6988;52.614;13.500;2022-10-22T21:29:49;54260.00;;;-143.77;81.94
13836;BME280;6988;52.614;13.500;2022-10-22T21:34:42;54264.09;;;-143.77;82.29
13836;BME280;6988;52.614;13.500;2022-10-22T21:39:33;54286.69;;;-143.77;82.16
13836;BME280;6988;52.614;13.500;2022-10-22T21:44:25;54272.31;;;-143.77;82.40
13836;BME280;6988;52.614;13.500;2022-10-22T22:04:52;54288.72;;;-143.77;83.26
13836;BME280;6988;52.614;13.500;2022-10-22T22:09:45;54276.41;;;-143.77;83.74
13836;BME280;6988;52.614;13.500;2022-10-22T22:14:37;54253.84;;;-143.77;83.82
13836;BME280;6988;52.614;13.500;2022-10-22T22:19:28;54253.84;;;-143.77;83.63
13836;BME280;6988;52.614;13.500;2022-10-22T22:24:21;54239.47;;;-143.77;83.67
13836;BME280;6988;52.614;13.500;2022-10-22T22:29:13;54292.84;;;-143.77;83.64
13836;BME280;6988;52.614;13.500;2022-10-22T22:34:08;54229.22;;;-143.77;83.79
13836;BME280;6988;52.614;13.500;2022-10-22T22:39:04;54290.78;;;-143.77;84.22
13836;BME280;6988;52.614;13.500;2022-10-22T22:43:57;54294.88;;;-143.77;84.53
13836;BME280;6988;52.614;13.500;2022-10-22T22:48:49;54260.00;;;-143.77;84.46
13836;BME280;6988;52.614;13.500;2022-10-22T22:53:41;54296.94;;;-143.77;84.74
13836;BME280;6988;52.614;13.500;2022-10-22T22:58:33;54309.25;;;-143.77;84.76
13836;BME280;6988;52.614;13.500;2022-10-22T23:03:26;54327.72;;;-143.77;84.72
13836;BME280;6988;52.614;13.500;2022-10-22T23:08:18;54340.03;;;-143.77;84.76
13836;BME280;6988;52.614;13.500;2022-10-22T23:13:09;54309.25;;;-143.77;85.01
13836;BME280;6988;52.614;13.500;2022-10-22T23:18:01;54323.59;;;-143.77;85.38
13836;BME280;6988;52.614;13.500;2022-10-22T23:22:54;54331.81;;;-143.77;85.96
13836;BME280;6988;52.614;13.500;2022-10-22T23:27:47;54307.19;;;-143.77;86.18
13836;BME280;6988;52.614;13.500;2022-10-22T23:32:38;54325.66;;;-143.77;86.96
13836;BME280;6988;52.614;13.500;2022-10-22T23:37:30;54337.97;;;-143.77;86.77
13836;BME280;6988;52.614;13.500;2022-10-22T23:42:23;54329.75;;;-143.77;87.08
13836;BME280;6988;52.614;13.500;2022-10-22T23:47:16;54340.03;;;-143.77;87.22
13836;BME280;6988;52.614;13.500;2022-10-22T23:52:07;54346.19;;;-143.77;87.57
13836;BME280;6988;52.614;13.500;2022-10-22T23:56:59;54362.59;;;-143.77;88.04
